Time;durP1;ratioP1;P1;durP2;ratioP2;P2;SDS_P1;SDS_P2;PMS_P1;PMS_P2;Temp;Humidity;BMP_temperature;BMP_pressure;BME280_temperature;BME280_humidity;BME280_pressure;Samples;Min_cycle;Max_cycle;Signal;HPM_P1;HPM_P2
2022/05/16 00:00:24;;;;;;;8.90;1.80;;;;;;;17.68;46.98;96462.56;2071313;28;20201;-61
2022/05/16 00:01:26;;;;;;;4.10;2.05;;;;;;;17.69;47.15;96464.25;2065108;28;20731;-61
2022/05/16 00:02:27;;;;;;;3.65;1.67;;;;;;;17.65;47.43;96459.31;2079175;28;20246;-61
2022/05/16 00:03:29;;;;;;;2.40;1.55;;;;;;;17.63;47.02;96456.81;2069255;28;20205;-61
2022/05/16 00:04:31;;;;;;;10.93;1.70;;;;;;;17.23;47.44;96393.84;2071029;28;20229;-61
2022/05/16 00:05:33;;;;;;;9.50;1.98;;;;;;;17.47;47.70;96436.00;2072753;28;20202;-61
2022/05/16 00:06:34;;;;;;;6.22;1.80;;;;;;;17.54;47.94;96447.78;2061169;28;20227;-61
2022/05/16 00:07:36;;;;;;;9.05;1.60;;;;;;;17.57;47.49;96449.34;2077212;28;20201;-62
2022/05/16 00:08:38;;;;;;;2.00;1.40;;;;;;;17.53;47.64;96443.47;2072942;28;20201;-62
2022/05/16 00:09:39;;;;;;;3.00;1.45;;;;;;;17.48;47.43;96437.69;2071629;28;20198;-61
2022/05/16 00:10:41;;;;;;;3.88;1.65;;;;;;;17.52;47.71;96444.44;2071473;28;20197;-62
2022/05/16 00:11:43;;;;;;;5.43;1.55;;;;;;;17.53;47.58;96451.38;2066624;28;20304;-61
2022/05/16 00:12:44;;;;;;;3.08;1.45;;;;;;;17.53;47.57;96448.75;2076199;28;20205;-62
2022/05/16 00:13:47;;;;;;;2.75;1.23;;;;;;;17.61;47.80;96450.78;2071531;28;20213;-61
2022/05/16 00:14:48;;;;;;;8.57;2.05;;;;;;;17.58;47.97;96445.75;2071453;28;20198;-61
2022/05/16 00:15:50;;;;;;;5.32;1.63;;;;;;;17.40;48.88;96451.47;2071340;28;20942;-61
2022/05/16 00:16:51;;;;;;;7.57;1.73;;;;;;;17.31;49.14;96446.91;2070643;28;20237;-61
2022/05/16 00:17:53;;;;;;;6.15;1.63;;;;;;;17.23;49.55;96447.47;2071422;28;20202;-62
2022/05/16 00:18:55;;;;;;;6.57;1.60;;;;;;;17.17;49.66;96444.47;2071234;28;20205;-61
2022/05/16 00:19:56;;;;;;;6.80;1.73;;;;;;;17.14;49.22;96443.72;2070015;28;20194;-62
2022/05/16 00:20:58;;;;;;;2.60;1.50;;;;;;;17.03;49.53;96433.13;2062143;28;20248;-61
2022/05/16 00:21:59;;;;;;;3.90;1.63;;;;;;;17.17;49.31;96444.47;2070973;28;20195;-61
2022/05/16 00:23:01;;;;;;;5.10;1.60;;;;;;;17.02;49.76;96425.34;2069157;28;20205;-61
2022/05/16 00:24:03;;;;;;;6.35;1.75;;;;;;;17.08;49.89;96438.06;2070205;28;20241;-61
2022/05/16 00:25:07;;;;;;;5.32;1.50;;;;;;;17.03;49.77;96435.75;2071206;28;20211;-61
2022/05/16 00:26:09;;;;;;;3.75;1.70;;;;;;;16.97;49.67;96423.03;2063208;28;20202;-61
2022/05/16 00:27:11;;;;;;;6.03;1.65;;;;;;;17.03;49.42;96419.94;2078803;28;20209;-61
2022/05/16 00:28:13;;;;;;;3.97;1.50;;;;;;;17.07;49.82;96439.84;2076280;28;20205;-61
2022/05/16 00:29:14;;;;;;;9.48;1.88;;;;;;;17.11;49.54;96437.81;2071432;28;20213;-62
2022/05/16 00:30:19;;;;;;;3.05;1.48;;;;;;;17.05;49.77;96433.88;2071314;28;20208;-61
2022/05/16 00:31:20;;;;;;;2.90;1.20;;;;;;;17.14;49.50;96429.66;2058832;28;20598;-61
2022/05/16 00:32:23;;;;;;;6.53;1.70;;;;;;;17.09;49.60;96424.75;2070551;28;20202;-61
2022/05/16 00:33:24;;;;;;;10.38;1.80;;;;;;;17.10;49.88;96434.34;2072191;28;20207;-62
2022/05/16 00:34:26;;;;;;;6.43;2.00;;;;;;;17.02;49.84;96428.78;2072873;28;20213;-61
2022/05/16 00:35:27;;;;;;;2.70;1.70;;;;;;;17.08;49.83;96430.16;2072405;28;20197;-61
2022/05/16 00:36:29;;;;;;;3.35;1.40;;;;;;;17.04;50.05;96424.25;2072250;28;20221;-61
2022/05/16 00:37:30;;;;;;;12.18;1.73;;;;;;;17.02;50.06;96418.25;2072686;28;20205;-61
2022/05/16 00:38:32;;;;;;;7.38;2.00;;;;;;;16.90;50.93;96435.78;2072895;28;20202;-61
2022/05/16 00:39:34;;;;;;;2.60;1.30;;;;;;;16.79;51.15;96423.38;2072941;28;20672;-61
2022/05/16 00:40:35;;;;;;;3.38;1.52;;;;;;;16.97;50.53;96423.03;2072687;28;20679;-61
2022/05/16 00:41:37;;;;;;;3.30;1.60;;;;;;;16.92;50.40;96414.63;2068437;28;20220;-61
2022/05/16 00:42:40;;;;;;;3.25;1.48;;;;;;;17.07;50.42;96429.28;2080490;28;20200;-61
2022/05/16 00:43:59;;;;;;;8.82;2.08;;;;;;;17.07;50.76;96424.03;2074326;28;20197;-61
2022/05/16 00:45:00;;;;;;;3.17;1.10;;;;;;;16.97;50.21;96418.56;2072644;28;20216;-61
2022/05/16 00:46:02;;;;;;;3.65;1.65;;;;;;;17.00;50.31;96421.94;2062126;28;20240;-61
2022/05/16 00:47:05;;;;;;;3.90;1.55;;;;;;;17.00;50.54;96427.22;2072284;28;20204;-61
2022/05/16 00:48:07;;;;;;;5.40;1.73;;;;;;;17.01;50.54;96428.91;2078225;28;20193;-61
2022/05/16 00:49:13;;;;;;;5.15;1.85;;;;;;;17.02;50.59;96420.06;2072493;28;20208;-61
2022/05/16 00:50:15;;;;;;;2.75;1.40;;;;;;;17.10;50.21;96417.66;2071914;28;20198;-62
2022/05/16 00:51:27;;;;;;;7.32;2.35;;;;;;;17.31;49.86;96420.50;2062823;28;20754;-61
2022/05/16 00:52:33;;;;;;;3.55;1.48;;;;;;;17.30;50.00;96419.66;2076408;28;20681;-62
2022/05/16 00:53:35;;;;;;;3.45;1.70;;;;;;;17.33;50.61;96418.59;2073785;28;20197;-61
2022/05/16 00:54:43;;;;;;;3.47;1.90;;;;;;;17.20;50.00;96402.00;2074489;28;20196;-61
2022/05/16 00:55:44;;;;;;;4.18;1.63;;;;;;;17.21;50.84;96406.34;2072311;28;20220;-62
2022/05/16 00:56:50;;;;;;;4.75;1.98;;;;;;;17.05;51.51;96419.81;2072205;28;20217;-61
2022/05/16 00:57:55;;;;;;;4.40;1.73;;;;;;;17.00;52.07;96419.31;2072005;28;20201;-62
2022/05/16 00:58:56;;;;;;;6.50;2.13;;;;;;;16.91;52.23;96411.16;2072354;28;20202;-61
2022/05/16 01:00:19;;;;;;;3.67;1.60;;;;;;;16.78;52.60;96416.44;2072608;28;20197;-62
2022/05/16 01:05:28;;;;;;;2.83;1.75;;;;;;;16.92;51.55;96410.16;2071371;28;20209;-61
2022/05/16 01:06:29;;;;;;;6.30;2.85;;;;;;;16.94;51.56;96410.06;2067040;28;20232;-62
2022/05/16 01:07:35;;;;;;;9.50;2.20;;;;;;;17.02;51.32;96406.88;2079370;28;20208;-62
2022/05/16 01:08:39;;;;;;;7.22;1.80;;;;;;;17.04;51.34;96410.22;2072736;28;20201;-59
2022/05/16 01:09:41;;;;;;;3.55;1.73;;;;;;;17.06;51.32;96410.94;2072030;28;20209;-59
2022/05/16 01:10:43;;;;;;;4.18;1.73;;;;;;;17.01;51.72;96406.00;2072417;28;20317;-59
2022/05/16 01:11:44;;;;;;;4.03;1.95;;;;;;;16.97;51.80;96401.94;2068349;28;20228;-59
2022/05/16 01:12:50;;;;;;;3.40;1.58;;;;;;;16.82;52.33;96403.88;2069238;28;20258;-59
2022/05/16 01:13:52;;;;;;;2.65;1.50;;;;;;;16.76;52.55;96404.31;2072808;28;20202;-59
2022/05/16 01:14:56;;;;;;;7.35;2.10;;;;;;;16.68;52.87;96406.69;2072449;28;20202;-59
2022/05/16 01:16:00;;;;;;;2.60;1.73;;;;;;;16.70;52.74;96407.41;2070872;28;20210;-59
2022/05/16 01:17:01;;;;;;;2.95;1.55;;;;;;;16.68;53.07;96409.31;2071973;28;20196;-59
2022/05/16 01:18:09;;;;;;;1.92;1.33;;;;;;;16.61;53.16;96412.41;2072463;28;20202;-59
2022/05/16 01:19:10;;;;;;;3.25;1.80;;;;;;;16.59;53.47;96402.91;2072202;28;20204;-59
2022/05/16 01:20:12;;;;;;;2.67;1.90;;;;;;;16.52;54.01;96402.53;2071630;28;20194;-59
2022/05/16 01:21:32;;;;;;;3.75;1.40;;;;;;;16.47;54.32;96400.22;2064469;28;20221;-59
2022/05/16 01:22:38;;;;;;;8.63;2.20;;;;;;;16.47;54.38;96400.22;2079757;28;20799;-59
2022/05/16 01:23:45;;;;;;;3.00;1.67;;;;;;;16.40;54.75;96391.06;2073002;28;20205;-59
2022/05/16 01:24:47;;;;;;;2.55;1.30;;;;;;;16.30;55.14;96392.69;2072249;28;20194;-59
2022/05/16 01:25:50;;;;;;;6.45;1.83;;;;;;;16.38;55.20;96406.16;2070720;28;20197;-59
2022/05/16 01:26:52;;;;;;;4.10;1.60;;;;;;;16.32;55.23;96406.59;2069823;28;20308;-59
2022/05/16 01:27:57;;;;;;;4.72;2.35;;;;;;;16.35;54.34;96408.16;2080149;28;20201;-59
2022/05/16 01:28:59;;;;;;;2.10;1.50;;;;;;;16.39;53.91;96396.44;2072502;28;20201;-59
2022/05/16 01:30:00;;;;;;;4.80;1.70;;;;;;;16.45;54.05;96404.75;2072303;28;20202;-59
2022/05/16 01:31:02;;;;;;;5.40;1.98;;;;;;;16.45;53.63;96399.47;2062390;28;20206;-59
2022/05/16 01:32:04;;;;;;;5.65;2.50;;;;;;;16.57;53.45;96404.81;2074251;28;20205;-59
2022/05/16 01:33:06;;;;;;;3.22;1.90;;;;;;;16.55;53.65;96404.09;2074592;28;20715;-58
2022/05/16 01:34:08;;;;;;;3.13;1.77;;;;;;;16.50;53.79;96404.44;2072306;28;20210;-58
2022/05/16 01:35:09;;;;;;;5.38;2.47;;;;;;;16.52;54.09;96401.69;2072143;28;20232;-59
2022/05/16 01:36:11;;;;;;;6.57;2.00;;;;;;;16.41;54.48;96395.38;2072054;28;20657;-58
2022/05/16 01:37:13;;;;;;;7.32;1.92;;;;;;;16.37;54.70;96393.94;2072420;28;20198;-59
2022/05/16 01:38:19;;;;;;;2.67;1.92;;;;;;;16.41;54.43;96394.56;2072565;28;20197;-59
2022/05/16 01:39:20;;;;;;;8.35;1.70;;;;;;;16.44;54.33;96389.06;2071770;28;20201;-59
2022/05/16 01:40:23;;;;;;;5.90;2.60;;;;;;;16.65;53.84;96394.56;2072406;28;20194;-59
2022/05/16 01:41:25;;;;;;;3.67;1.50;;;;;;;16.65;53.64;96391.94;2066415;28;20232;-59
2022/05/16 01:42:27;;;;;;;2.25;1.67;;;;;;;16.62;53.93;96389.50;2077738;28;20204;-59
2022/05/16 01:43:35;;;;;;;2.40;1.98;;;;;;;16.61;53.96;96393.13;2075550;28;20211;-59
2022/05/16 01:44:37;;;;;;;5.50;1.90;;;;;;;16.76;53.69;96391.13;2072463;28;20202;-59
2022/05/16 01:45:44;;;;;;;7.03;1.90;;;;;;;16.76;53.90;96391.13;2071984;28;20205;-59
2022/05/16 01:46:46;;;;;;;2.60;1.75;;;;;;;16.76;53.54;96388.50;2068700;28;20224;-59
2022/05/16 01:47:47;;;;;;;4.10;2.58;;;;;;;16.78;53.20;96384.78;2079598;28;20204;-59
2022/05/16 01:48:49;;;;;;;4.30;1.90;;;;;;;16.74;53.82;96387.78;2072877;28;20208;-59
2022/05/16 01:49:51;;;;;;;5.35;1.70;;;;;;;16.80;53.37;96384.69;2071541;28;20205;-59
2022/05/16 01:50:58;;;;;;;4.32;1.80;;;;;;;16.78;53.76;96382.16;2071456;28;20656;-59
2022/05/16 01:52:00;;;;;;;3.47;1.85;;;;;;;16.67;54.75;96382.13;2071729;28;20704;-59
2022/05/16 01:53:02;;;;;;;3.03;2.00;;;;;;;16.53;54.70;96383.13;2071351;28;20202;-59
2022/05/16 01:54:04;;;;;;;5.97;1.92;;;;;;;16.52;54.66;96386.72;2072196;28;20198;-59
2022/05/16 01:55:06;;;;;;;5.57;1.83;;;;;;;16.48;55.53;96383.47;2071913;28;20588;-58
2022/05/16 01:56:08;;;;;;;5.25;2.03;;;;;;;16.55;55.06;96386.47;2071661;28;20194;-59
2022/05/16 01:57:10;;;;;;;6.97;2.00;;;;;;;16.37;56.11;96378.13;2071729;28;20198;-59
2022/05/16 01:58:11;;;;;;;3.95;2.20;;;;;;;16.32;55.82;96375.81;2072016;28;20247;-59
2022/05/16 01:59:13;;;;;;;3.90;1.50;;;;;;;16.25;55.89;96371.09;2071719;28;20400;-58
2022/05/16 02:00:16;;;;;;;7.07;2.20;;;;;;;16.30;55.90;96369.84;2072110;28;20198;-59
2022/05/16 02:01:18;;;;;;;4.90;1.70;;;;;;;16.32;56.22;96378.44;2064066;28;20221;-59
2022/05/16 02:02:20;;;;;;;5.47;2.10;;;;;;;16.29;55.35;96362.00;2075561;28;20275;-59
2022/05/16 02:03:21;;;;;;;5.38;2.05;;;;;;;16.40;55.10;96384.97;2071490;28;20247;-58
2022/05/16 02:04:23;;;;;;;7.25;2.22;;;;;;;16.41;54.73;96368.22;2072016;28;20198;-59
2022/05/16 02:05:25;;;;;;;5.07;2.08;;;;;;;16.38;56.14;96381.59;2071918;28;20212;-59
2022/05/16 02:06:26;;;;;;;3.85;2.70;;;;;;;16.21;56.04;96365.19;2066310;28;20821;-58
2022/05/16 02:07:28;;;;;;;4.10;2.05;;;;;;;16.25;56.49;96384.28;2079354;28;20196;-58
2022/05/16 02:08:29;;;;;;;2.75;1.95;;;;;;;16.24;56.74;96379.94;2075174;28;20194;-59
2022/05/16 02:09:31;;;;;;;8.75;2.25;;;;;;;16.14;56.99;96380.63;2072064;28;20233;-59
2022/05/16 02:10:33;;;;;;;4.53;2.28;;;;;;;16.13;57.22;96389.47;2072236;28;20204;-59
2022/05/16 02:11:34;;;;;;;3.85;1.48;;;;;;;16.06;56.91;96374.22;2061470;28;20245;-59
2022/05/16 02:12:36;;;;;;;2.13;1.52;;;;;;;16.10;57.13;96375.66;2068671;28;20206;-59
2022/05/16 02:13:39;;;;;;;3.28;1.50;;;;;;;16.15;57.62;96384.06;2072303;28;20202;-58
2022/05/16 02:14:41;;;;;;;5.15;2.22;;;;;;;16.02;58.13;96378.84;2071408;28;20198;-58
2022/05/16 02:15:44;;;;;;;4.15;2.00;;;;;;;16.10;57.76;96383.56;2072059;28;20198;-58
2022/05/16 02:16:46;;;;;;;3.55;1.85;;;;;;;16.08;57.72;96383.69;2071482;28;20221;-59
2022/05/16 02:17:49;;;;;;;13.82;2.10;;;;;;;15.99;58.11;96377.28;2072102;28;20205;-58
2022/05/16 02:18:50;;;;;;;6.35;2.10;;;;;;;15.99;58.20;96377.28;2071828;28;20201;-59
2022/05/16 02:19:51;;;;;;;7.15;1.95;;;;;;;15.98;58.22;96375.59;2072199;28;20835;-59
2022/05/16 02:24:38;;;;;;;5.65;2.30;;;;;;;16.03;58.14;96379.72;2067717;28;20688;-59
2022/05/16 02:24:54;;;;;;;4.53;1.98;;;;;;;15.97;58.33;96370.44;2072025;28;20204;-58
2022/05/16 02:25:57;;;;;;;5.57;2.40;;;;;;;15.98;58.71;96378.22;2062085;28;20216;-59
2022/05/16 02:26:58;;;;;;;4.55;2.00;;;;;;;15.97;58.65;96370.44;2075399;28;20623;-58
2022/05/16 02:28:00;;;;;;;1.67;1.40;;;;;;;15.96;58.70;96369.59;2067693;28;20677;-59
2022/05/16 02:29:01;;;;;;;9.73;2.17;;;;;;;15.97;58.72;96375.69;2071394;28;20204;-59
2022/05/16 02:30:05;;;;;;;5.50;1.83;;;;;;;15.94;58.77;96378.56;2072040;28;20196;-59
2022/05/16 02:31:07;;;;;;;5.57;1.85;;;;;;;15.92;58.47;96386.56;2062162;28;20220;-59
2022/05/16 02:32:10;;;;;;;6.10;2.30;;;;;;;15.89;58.12;96376.25;2074096;28;20209;-59
2022/05/16 02:33:14;;;;;;;7.70;2.22;;;;;;;15.86;58.20;96400.16;2071861;28;20212;-59
2022/05/16 02:34:16;;;;;;;2.30;2.10;;;;;;;15.70;57.56;96354.78;2071827;28;20281;-59
2022/05/16 02:35:18;;;;;;;5.70;1.90;;;;;;;15.85;57.76;96382.69;2071655;28;20232;-59
2022/05/16 02:36:23;;;;;;;3.13;2.00;;;;;;;15.92;57.79;96398.88;2071665;28;20560;-59
2022/05/16 02:37:25;;;;;;;3.33;1.80;;;;;;;15.95;57.51;96404.78;2071562;28;20197;-58
2022/05/16 02:38:26;;;;;;;5.65;2.25;;;;;;;15.93;57.37;96406.66;2071764;28;20196;-59
2022/05/16 02:39:28;;;;;;;3.63;1.98;;;;;;;15.87;57.20;96407.13;2071749;28;20205;-58
2022/05/16 02:40:31;;;;;;;3.85;2.00;;;;;;;15.99;56.84;96410.69;2071668;28;20201;-58
2022/05/16 02:41:33;;;;;;;4.47;2.40;;;;;;;15.87;56.96;96399.22;2061228;28;20235;-59
2022/05/16 02:42:35;;;;;;;5.15;2.45;;;;;;;15.90;56.92;96399.00;2074912;28;20194;-58
2022/05/16 02:43:36;;;;;;;5.25;1.95;;;;;;;15.98;56.68;96412.44;2072759;28;20813;-58
2022/05/16 02:44:38;;;;;;;5.80;2.20;;;;;;;15.96;56.56;96405.59;2071733;28;20583;-58
2022/05/16 02:45:40;;;;;;;3.55;1.75;;;;;;;15.97;56.69;96418.69;2071610;28;20552;-58
2022/05/16 02:46:43;;;;;;;5.65;1.70;;;;;;;15.97;56.70;96416.06;2064932;28;20777;-58
2022/05/16 02:47:44;;;;;;;5.35;2.00;;;;;;;16.00;56.85;96428.16;2076345;28;20197;-59
2022/05/16 02:48:46;;;;;;;5.68;2.08;;;;;;;15.99;56.87;96426.47;2072662;28;20233;-58
2022/05/16 02:49:48;;;;;;;6.05;2.22;;;;;;;15.98;57.08;96428.25;2071790;28;20225;-58
2022/05/16 02:50:49;;;;;;;4.10;1.70;;;;;;;16.00;56.90;96433.44;2071775;28;20205;-58
2022/05/16 02:51:51;;;;;;;4.68;2.13;;;;;;;15.97;56.67;96431.00;2065280;28;20221;-58
2022/05/16 02:52:53;;;;;;;6.28;1.75;;;;;;;15.99;57.12;96429.94;2072982;28;20217;-58
2022/05/16 02:53:55;;;;;;;6.90;2.15;;;;;;;16.06;56.96;96427.75;2071529;28;20649;-58
2022/05/16 02:54:56;;;;;;;7.57;2.40;;;;;;;16.05;56.76;96426.06;2071184;28;20201;-58
2022/05/16 02:55:57;;;;;;;4.40;1.85;;;;;;;16.00;56.84;96422.91;2070997;28;20657;-58
2022/05/16 02:56:59;;;;;;;8.45;1.92;;;;;;;16.04;56.69;96423.53;2071280;28;20205;-58
2022/05/16 02:58:01;;;;;;;9.23;2.40;;;;;;;16.08;56.51;96425.81;2071675;28;20323;-58
2022/05/16 02:59:02;;;;;;;4.00;2.33;;;;;;;15.96;56.80;96406.47;2071579;28;20193;-58
2022/05/16 03:00:08;;;;;;;4.65;2.30;;;;;;;16.05;57.22;96426.06;2071391;28;20193;-58
2022/05/16 03:01:11;;;;;;;6.50;2.30;;;;;;;15.95;57.49;96417.13;2063655;28;20252;-58
2022/05/16 03:02:14;;;;;;;6.35;2.85;;;;;;;16.05;57.08;96418.16;2077370;28;20280;-58
2022/05/16 03:03:15;;;;;;;7.15;2.03;;;;;;;16.10;57.29;96421.31;2076711;28;20213;-58
2022/05/16 03:04:17;;;;;;;5.15;2.45;;;;;;;16.10;57.15;96415.16;2071679;28;20201;-58
2022/05/16 03:05:18;;;;;;;8.80;2.72;;;;;;;16.14;57.20;96430.66;2071694;28;20197;-58
2022/05/16 03:06:21;;;;;;;3.65;2.25;;;;;;;16.24;56.60;96430.00;2063198;28;20399;-57
2022/05/16 03:07:22;;;;;;;4.90;2.20;;;;;;;16.25;56.48;96432.56;2071875;28;20205;-58
2022/05/16 03:08:24;;;;;;;4.10;2.05;;;;;;;16.31;56.34;96426.81;2072957;28;20224;-58
2022/05/16 03:09:26;;;;;;;2.70;2.05;;;;;;;16.23;56.68;96425.72;2071182;28;20768;-58
2022/05/16 03:10:28;;;;;;;4.32;2.05;;;;;;;16.13;56.48;96405.25;2071383;28;20202;-58
2022/05/16 03:11:30;;;;;;;7.35;2.58;;;;;;;16.27;56.84;96424.53;2062358;28;20221;-58
2022/05/16 03:12:31;;;;;;;5.80;2.50;;;;;;;16.22;56.78;96426.66;2072897;28;20205;-58
2022/05/16 03:13:33;;;;;;;4.60;2.35;;;;;;;16.13;57.08;96426.34;2069891;28;20756;-59
2022/05/16 03:14:35;;;;;;;8.75;2.22;;;;;;;16.13;57.39;96426.34;2071672;28;20220;-58
2022/05/16 03:15:36;;;;;;;9.35;2.25;;;;;;;16.08;57.95;96432.91;2071664;28;20598;-58
2022/05/16 03:16:38;;;;;;;2.95;1.95;;;;;;;16.16;57.48;96438.44;2070618;28;20228;-58
2022/05/16 03:17:40;;;;;;;4.63;1.75;;;;;;;16.17;57.19;96424.34;2071359;28;20720;-59
2022/05/16 03:18:43;;;;;;;7.60;2.53;;;;;;;16.26;57.13;96438.66;2071565;28;20205;-59
2022/05/16 03:19:45;;;;;;;3.80;2.15;;;;;;;16.30;56.89;96432.19;2071431;28;20209;-59
2022/05/16 03:20:46;;;;;;;5.55;2.63;;;;;;;16.18;57.16;96428.66;2071291;28;20198;-58
2022/05/16 03:21:48;;;;;;;4.97;2.40;;;;;;;16.20;57.55;96425.91;2068413;28;20701;-58
2022/05/16 03:22:49;;;;;;;4.00;2.08;;;;;;;16.18;57.46;96427.81;2078958;28;20588;-59
2022/05/16 03:23:52;;;;;;;3.30;2.22;;;;;;;16.20;57.29;96434.66;2069862;28;20241;-58
2022/05/16 03:24:53;;;;;;;3.95;2.17;;;;;;;16.12;57.37;96421.19;2071572;28;20194;-58
2022/05/16 03:25:55;;;;;;;7.28;2.00;;;;;;;16.21;57.60;96427.59;2061766;28;20621;-59
2022/05/16 03:26:57;;;;;;;8.45;2.30;;;;;;;16.27;57.75;96435.06;2079087;28;20637;-60
2022/05/16 03:27:59;;;;;;;3.95;1.80;;;;;;;16.31;58.13;96420.72;2078553;28;20201;-60
2022/05/16 03:29:00;;;;;;;3.28;1.98;;;;;;;16.27;58.41;96416.63;2070179;28;20205;-61
2022/05/16 03:30:04;;;;;;;3.70;2.00;;;;;;;16.31;58.66;96418.09;2070698;28;20220;-60
2022/05/16 03:31:05;;;;;;;11.45;2.50;;;;;;;16.36;58.37;96423.88;2061848;28;20205;-60
2022/05/16 03:32:07;;;;;;;9.20;2.75;;;;;;;16.38;57.97;96421.97;2072334;28;20704;-60
2022/05/16 03:33:09;;;;;;;2.38;2.00;;;;;;;16.34;57.92;96415.25;2073732;28;20205;-60
2022/05/16 03:34:12;;;;;;;2.80;2.08;;;;;;;16.37;58.14;96416.81;2071469;28;20194;-60
2022/05/16 03:35:13;;;;;;;8.18;2.53;;;;;;;16.41;58.23;96420.91;2071516;28;20208;-60
2022/05/16 03:36:16;;;;;;;5.97;2.65;;;;;;;16.16;59.37;96428.78;2063552;28;20232;-59
2022/05/16 03:37:17;;;;;;;5.05;2.30;;;;;;;16.22;59.10;96430.13;2077305;28;20668;-59
2022/05/16 03:40:59;;;;;;;3.80;1.90;;;;;;;16.16;59.38;96427.91;2062368;28;20645;-60
2022/05/16 03:42:00;;;;;;;4.07;2.15;;;;;;;15.87;60.06;96433.44;2078854;28;20201;-58
2022/05/16 03:43:02;;;;;;;5.93;2.72;;;;;;;15.82;59.83;96415.31;2077999;28;20239;-59
2022/05/16 03:44:04;;;;;;;6.10;2.55;;;;;;;15.82;59.79;96419.72;2071358;28;20200;-61
2022/05/16 03:45:06;;;;;;;12.77;2.80;;;;;;;15.93;59.79;96437.44;2071446;28;20208;-60
2022/05/16 03:46:09;;;;;;;4.82;2.33;;;;;;;15.75;61.25;96435.09;2062638;28;20204;-60
2022/05/16 03:47:11;;;;;;;3.55;2.25;;;;;;;15.83;60.99;96430.19;2078767;28;20201;-60
2022/05/16 03:48:12;;;;;;;5.13;2.30;;;;;;;15.97;60.20;96431.00;2076361;28;20220;-60
2022/05/16 03:49:13;;;;;;;4.40;3.20;;;;;;;15.99;59.48;96434.38;2071428;28;20208;-61
2022/05/16 03:50:15;;;;;;;7.25;2.55;;;;;;;15.94;60.04;96423.31;2071235;28;20564;-61
2022/05/16 03:51:18;;;;;;;5.00;2.13;;;;;;;16.00;59.85;96439.53;2070638;28;20644;-60
2022/05/16 03:52:20;;;;;;;4.57;2.40;;;;;;;15.87;59.99;96422.91;2069486;28;20212;-60
2022/05/16 03:53:21;;;;;;;6.30;1.73;;;;;;;15.88;60.47;96447.44;2071369;28;20205;-59
2022/05/16 03:54:23;;;;;;;7.25;2.28;;;;;;;15.85;60.34;96435.34;2069989;28;20209;-59
2022/05/16 03:55:24;;;;;;;5.13;2.10;;;;;;;15.94;60.57;96444.38;2071058;28;20259;-58
2022/05/16 03:56:27;;;;;;;3.90;2.28;;;;;;;15.86;61.65;96430.91;2065249;28;20224;-59
2022/05/16 03:57:29;;;;;;;6.50;1.92;;;;;;;15.95;61.41;96446.09;2078117;28;20197;-59
2022/05/16 03:58:30;;;;;;;11.77;3.72;;;;;;;16.03;61.65;96453.44;2073534;28;20208;-58
2022/05/16 03:59:32;;;;;;;4.57;1.75;;;;;;;15.95;62.00;96449.53;2071063;28;20622;-58
2022/05/16 04:00:33;;;;;;;2.83;2.03;;;;;;;15.99;60.46;96456.28;2070653;28;20205;-58
2022/05/16 04:01:35;;;;;;;5.75;2.60;;;;;;;15.73;61.70;96460.69;2060871;28;20218;-59
2022/05/16 04:02:41;;;;;;;5.03;2.38;;;;;;;15.42;62.14;96444.34;2078743;28;20201;-59
2022/05/16 04:03:45;;;;;;;5.55;2.80;;;;;;;15.51;62.79;96461.28;2072581;28;20204;-59
2022/05/16 04:04:46;;;;;;;6.25;2.35;;;;;;;15.55;62.95;96446.16;2071311;28;20223;-59
2022/05/16 04:05:49;;;;;;;8.95;2.30;;;;;;;15.63;62.92;96447.31;2071428;28;20208;-58
2022/05/16 04:06:51;;;;;;;8.45;2.70;;;;;;;15.73;63.39;96458.06;2069566;28;20240;-59
2022/05/16 04:07:52;;;;;;;5.70;2.80;;;;;;;15.71;63.89;96451.22;2080261;28;20208;-58
2022/05/16 04:08:54;;;;;;;3.70;2.22;;;;;;;15.72;64.02;96448.47;2072977;28;20197;-57
2022/05/16 04:09:56;;;;;;;7.93;2.65;;;;;;;15.87;64.26;96459.78;2072971;28;20205;-58
2022/05/16 04:10:59;;;;;;;4.72;2.60;;;;;;;15.88;64.47;96460.59;2072305;28;20197;-58
2022/05/16 04:12:01;;;;;;;7.20;2.67;;;;;;;15.90;64.68;96461.34;2072862;28;20684;-59
2022/05/16 04:13:02;;;;;;;3.20;2.28;;;;;;;15.92;64.97;96460.31;2072691;28;20552;-58
2022/05/16 04:14:04;;;;;;;5.78;2.85;;;;;;;15.95;64.91;96457.44;2072746;28;20219;-58
2022/05/16 04:15:07;;;;;;;4.65;1.80;;;;;;;15.95;63.87;96467.16;2072617;28;20208;-57
2022/05/16 04:16:08;;;;;;;4.25;2.28;;;;;;;15.84;63.69;96446.81;2064755;28;20675;-58
2022/05/16 04:17:10;;;;;;;4.85;2.25;;;;;;;15.81;64.25;96439.97;2080404;28;20232;-58
2022/05/16 04:18:12;;;;;;;6.60;2.75;;;;;;;15.87;64.18;96459.78;2077929;28;20231;-58
2022/05/16 04:19:13;;;;;;;9.43;2.25;;;;;;;15.95;64.18;96459.25;2072725;28;20197;-58
2022/05/16 04:20:17;;;;;;;3.55;2.22;;;;;;;15.88;64.88;96463.25;2072682;28;20252;-58
2022/05/16 04:21:18;;;;;;;5.07;2.22;;;;;;;15.75;65.64;96456.16;2066378;28;20217;-57
2022/05/16 04:22:20;;;;;;;6.10;2.97;;;;;;;15.83;65.37;96467.03;2079502;28;20695;-57
2022/05/16 04:23:21;;;;;;;6.05;2.70;;;;;;;15.71;65.50;96438.06;2076495;28;20202;-58
2022/05/16 04:24:23;;;;;;;6.25;2.60;;;;;;;15.83;65.44;96464.41;2072772;28;20233;-58
2022/05/16 04:25:24;;;;;;;7.13;3.13;;;;;;;15.86;65.51;96465.13;2072805;28;20205;-58
2022/05/16 04:26:28;;;;;;;3.75;3.00;;;;;;;15.74;66.15;96459.72;2066514;28;20259;-58
2022/05/16 04:27:29;;;;;;;2.83;2.63;;;;;;;15.79;66.62;96464.69;2080241;28;20197;-58
2022/05/16 04:28:31;;;;;;;7.28;2.85;;;;;;;15.85;66.55;96460.84;2074838;28;20194;-58
2022/05/16 04:29:32;;;;;;;5.25;2.63;;;;;;;15.89;66.46;96454.41;2072916;28;20202;-58
2022/05/16 04:30:35;;;;;;;9.60;2.42;;;;;;;15.98;66.41;96461.66;2072900;28;20206;-58
2022/05/16 04:31:36;;;;;;;7.38;2.60;;;;;;;15.78;66.32;96442.78;2072438;28;20744;-58
2022/05/16 04:32:38;;;;;;;6.53;2.33;;;;;;;15.72;66.02;96455.50;2072857;28;20857;-58
2022/05/16 04:33:44;;;;;;;4.45;2.42;;;;;;;15.61;66.00;96456.25;2072308;28;20218;-58
2022/05/16 04:34:46;;;;;;;9.02;2.83;;;;;;;15.82;65.93;96460.09;2072683;28;20205;-58
2022/05/16 04:35:47;;;;;;;4.47;2.60;;;;;;;15.91;65.84;96457.75;2072130;28;20194;-58
2022/05/16 04:36:48;;;;;;;3.67;1.90;;;;;;;15.89;65.50;96467.56;2066172;28;20389;-58
2022/05/16 04:37:50;;;;;;;6.00;2.50;;;;;;;15.77;64.35;96451.63;2076909;28;20208;-58
2022/05/16 04:38:51;;;;;;;7.85;2.45;;;;;;;15.95;64.66;96467.97;2078127;28;20193;-58
2022/05/16 04:40:04;;;;;;;4.47;2.25;;;;;;;15.97;66.01;96470.50;2079652;28;20193;-58
2022/05/16 04:42:42;;;;;;;3.35;2.10;;;;;;;16.11;66.07;96470.41;2065772;28;20209;-58
2022/05/16 04:43:44;;;;;;;4.35;2.70;;;;;;;16.24;66.05;96466.88;2073892;28;20633;-58
2022/05/16 04:44:45;;;;;;;2.30;2.10;;;;;;;16.30;65.96;96464.69;2072753;28;20712;-58
2022/05/16 04:45:47;;;;;;;6.70;2.30;;;;;;;16.27;65.69;96449.06;2071301;28;20744;-58
2022/05/16 04:46:48;;;;;;;4.93;2.58;;;;;;;16.37;64.58;96462.44;2062890;28;20226;-58
2022/05/16 04:47:53;;;;;;;3.47;2.45;;;;;;;16.41;63.39;96469.16;2075846;28;20201;-58
2022/05/16 04:48:54;;;;;;;2.92;2.35;;;;;;;16.49;63.64;96477.38;2072369;28;20198;-58
2022/05/16 04:49:56;;;;;;;6.18;2.35;;;;;;;16.48;64.00;96470.44;2072707;28;20609;-57
2022/05/16 04:50:57;;;;;;;6.10;2.40;;;;;;;16.44;64.60;96463.69;2072274;28;20307;-58
2022/05/16 04:51:59;;;;;;;5.57;2.80;;;;;;;16.45;64.83;96469.81;2072616;28;20197;-58
2022/05/16 04:53:01;;;;;;;5.30;2.55;;;;;;;16.49;64.64;96463.34;2072613;28;20204;-58
2022/05/16 04:54:02;;;;;;;6.80;2.70;;;;;;;16.59;64.65;96476.72;2072413;28;20700;-58
2022/05/16 04:55:04;;;;;;;14.70;2.50;;;;;;;16.60;64.79;96475.78;2070513;28;20210;-59
2022/05/16 04:56:06;;;;;;;6.78;2.50;;;;;;;16.59;65.25;96472.28;2062166;28;20220;-59
2022/05/16 04:57:08;;;;;;;9.43;2.35;;;;;;;16.62;65.32;96472.06;2080182;28;20201;-58
2022/05/16 04:58:09;;;;;;;6.30;2.95;;;;;;;16.65;65.38;96473.66;2077827;28;20198;-58
2022/05/16 04:59:12;;;;;;;6.75;2.63;;;;;;;16.66;65.48;96472.69;2070516;28;20201;-58
2022/05/16 05:00:15;;;;;;;6.40;2.53;;;;;;;16.44;65.49;96476.88;2075034;28;20202;-58
2022/05/16 05:01:17;;;;;;;5.30;2.78;;;;;;;16.32;65.10;96467.19;2063453;28;20229;-58
2022/05/16 05:02:19;;;;;;;5.68;2.63;;;;;;;16.33;64.89;96460.97;2080044;28;20197;-58
2022/05/16 05:03:20;;;;;;;4.10;2.75;;;;;;;16.43;64.90;96467.28;2076523;28;20202;-58
2022/05/16 05:04:22;;;;;;;5.57;2.53;;;;;;;16.45;65.48;96468.00;2072688;28;20190;-58
2022/05/16 05:05:23;;;;;;;7.88;2.85;;;;;;;16.53;65.45;96467.47;2071685;28;20202;-56